createdAt,value
2023-01-06T00:00:22.709Z,2.2
2023-01-06T00:06:42.507Z,2.2
2023-01-06T00:13:05.566Z,3.5
2023-01-06T00:19:25.625Z,3.5
2023-01-06T00:25:48.546Z,3.3
2023-01-06T00:32:08.517Z,3.3
2023-01-06T00:38:31.708Z,4
2023-01-06T00:44:51.575Z,4
2023-01-06T00:51:14.549Z,2.4
2023-01-06T00:57:34.644Z,2.4
2023-01-06T01:03:57.585Z,2.5
2023-01-06T01:10:17.524Z,2.5
2023-01-06T01:16:40.728Z,1.3
2023-01-06T01:23:00.528Z,1.3
2023-01-06T01:29:23.620Z,1.2
2023-01-06T01:35:43.640Z,1.2
2023-01-06T01:42:06.486Z,1.2
2023-01-06T01:48:26.508Z,1.2
2023-01-06T01:54:49.654Z,0.7
2023-01-06T02:01:09.608Z,0.7
2023-01-06T02:07:32.578Z,2.4
2023-01-06T02:13:52.680Z,2.4
2023-01-06T02:20:15.541Z,1.1
2023-01-06T02:26:35.537Z,1.1
2023-01-06T02:32:58.640Z,0.9
2023-01-06T02:39:18.550Z,0.9
2023-01-06T02:45:41.515Z,0.6
2023-01-06T02:52:01.623Z,0.6
2023-01-06T02:58:24.562Z,0.4
2023-01-06T03:04:44.635Z,0.4
2023-01-06T03:11:07.671Z,0.7
2023-01-06T03:17:27.531Z,0.7
2023-01-06T03:23:50.539Z,1
2023-01-06T03:30:10.632Z,1
2023-01-06T03:36:33.532Z,0.3
2023-01-06T03:42:53.515Z,0.3
2023-01-06T03:49:16.786Z,0.4
2023-01-06T03:55:36.527Z,0.4
2023-01-06T04:01:59.523Z,1
2023-01-06T04:08:19.617Z,1
2023-01-06T04:14:42.521Z,0.4
2023-01-06T04:21:02.490Z,0.4
2023-01-06T04:27:25.683Z,0.4
2023-01-06T04:50:14.547Z,0.2
2023-01-06T04:56:34.527Z,0.2
2023-01-06T05:02:57.591Z,0.7
2023-01-06T05:09:17.648Z,0.7
2023-01-06T05:15:40.518Z,0.9
2023-01-06T05:22:00.545Z,0.9
2023-01-06T05:28:23.608Z,0.9
2023-01-06T05:34:43.578Z,0.9
2023-01-06T05:41:06.593Z,0.1
2023-01-06T05:47:26.638Z,0.1
2023-01-06T05:53:49.606Z,0.9
2023-01-06T06:00:09.504Z,0.9
2023-01-06T06:06:32.673Z,0.9
2023-01-06T06:12:52.513Z,0.9
2023-01-06T06:19:15.477Z,0.2
2023-01-06T06:25:35.662Z,0.2
2023-01-06T06:31:58.489Z,0.2
2023-01-06T06:38:18.560Z,0.2
2023-01-06T06:44:41.631Z,0.3
2023-01-06T06:51:01.508Z,0.3
2023-01-06T06:57:24.567Z,0.6
2023-01-06T07:03:44.618Z,0.6
2023-01-06T07:10:07.594Z,0.6
2023-01-06T07:16:27.539Z,0.6
2023-01-06T07:22:50.829Z,0.2
2023-01-06T07:29:10.566Z,0.2
2023-01-06T07:35:33.528Z,0.2
2023-01-06T07:41:53.661Z,0.2
2023-01-06T07:48:16.609Z,0.6
2023-01-06T07:54:36.533Z,0.6
2023-01-06T08:00:59.674Z,0.1
2023-01-06T08:07:19.524Z,0.1
2023-01-06T08:13:42.578Z,0.2
2023-01-06T08:20:02.733Z,0.2
2023-01-06T08:26:25.535Z,1
2023-01-06T08:32:45.567Z,1
2023-01-06T08:39:08.715Z,0.4
2023-01-06T08:45:28.504Z,0.4
2023-01-06T08:51:51.565Z,0.8
2023-01-06T08:58:11.688Z,0.8
2023-01-06T09:04:34.615Z,0.2
2023-01-06T09:10:54.510Z,0.2
2023-01-06T09:17:17.668Z,0.2
2023-01-06T09:23:37.561Z,0.2
2023-01-06T09:30:00.503Z,0.1
2023-01-06T09:36:20.689Z,0.1
2023-01-06T09:42:43.551Z,0.4
2023-01-06T09:49:03.571Z,0.4
2023-01-06T09:55:26.756Z,0.8
2023-01-06T10:18:14.499Z,0.2
2023-01-06T10:24:34.594Z,0.2
2023-01-06T10:30:57.501Z,0.2
2023-01-06T10:37:17.694Z,0.2
2023-01-06T10:43:40.547Z,0.5
2023-01-06T10:50:00.540Z,0.5
2023-01-06T10:56:23.636Z,0.4
2023-01-06T11:02:43.575Z,0.4
2023-01-06T11:09:06.722Z,0.1
2023-01-06T11:15:26.709Z,0.1
2023-01-06T11:21:49.578Z,0.1
2023-01-06T11:28:09.649Z,0.1
2023-01-06T11:34:32.669Z,0.3
2023-01-06T11:40:52.544Z,0.3
2023-01-06T11:47:15.586Z,0.2
2023-01-06T11:53:35.575Z,0.2
2023-01-06T11:59:58.516Z,0.1
2023-01-06T12:06:18.550Z,0.1
2023-01-06T12:12:41.665Z,0.3
2023-01-06T12:19:01.885Z,0.3
2023-01-06T12:25:24.745Z,0.1
2023-01-06T12:31:44.863Z,0.1
2023-01-06T12:38:07.593Z,0.2
2023-01-06T12:44:27.578Z,0.2
2023-01-06T12:50:50.692Z,0.4
2023-01-06T12:57:10.589Z,0.4
2023-01-06T13:03:33.532Z,0.3
2023-01-06T13:09:53.696Z,0.3
2023-01-06T13:16:16.580Z,0.1
2023-01-06T13:22:38.076Z,0.1
2023-01-06T13:28:59.729Z,0.3
2023-01-06T13:35:19.676Z,0.3
2023-01-06T13:41:42.666Z,0.6
2023-01-06T13:48:02.598Z,0.6
2023-01-06T13:54:25.658Z,0.1
2023-01-06T14:00:45.956Z,0.1
2023-01-06T14:07:08.645Z,0.6
2023-01-06T14:13:28.896Z,0.6
2023-01-06T14:19:51.566Z,0.6
2023-01-06T14:26:11.708Z,0.6
2023-01-06T14:32:34.501Z,0.1
2023-01-06T14:38:54.534Z,0.1
2023-01-06T14:45:17.914Z,0.2
2023-01-06T14:51:37.520Z,0.2
2023-01-06T14:58:00.554Z,0.2
2023-01-06T15:04:20.664Z,0.2
2023-01-06T15:10:43.544Z,0.5
2023-01-06T15:17:03.587Z,0.5
2023-01-06T15:42:25.042Z,0.6
2023-01-06T15:48:44.512Z,0.6
2023-01-06T15:55:07.520Z,0.2
2023-01-06T16:01:27.743Z,0.2
2023-01-06T16:07:50.485Z,0.3
2023-01-06T16:14:10.523Z,0.3
2023-01-06T16:20:33.677Z,0.1
2023-01-06T16:26:53.577Z,0.1
2023-01-06T16:33:16.524Z,0.6
2023-01-06T16:39:36.618Z,0.6
2023-01-06T16:45:59.576Z,0.3
2023-01-06T16:52:19.586Z,0.3
2023-01-06T16:58:42.726Z,0.8
2023-01-06T17:05:02.634Z,0.8
2023-01-06T17:11:25.543Z,0.1
2023-01-06T17:17:45.720Z,0.1
2023-01-06T17:24:08.481Z,0.6
2023-01-06T17:30:28.499Z,0.6
2023-01-06T17:36:51.647Z,1.2
2023-01-06T17:43:11.511Z,1.2
2023-01-06T17:49:34.986Z,1.1
2023-01-06T17:55:55.118Z,1.1
2023-01-06T18:02:17.579Z,0.1
2023-01-06T18:08:37.501Z,0.1
2023-01-06T18:15:00.684Z,0.2
2023-01-06T18:21:20.511Z,0.2
2023-01-06T18:27:43.477Z,1
2023-01-06T18:34:03.735Z,1
2023-01-06T18:40:26.766Z,0.5
2023-01-06T18:46:46.531Z,0.5
2023-01-06T18:53:09.697Z,0.9
2023-01-06T18:59:29.501Z,0.9
2023-01-06T19:05:52.576Z,0.1
2023-01-06T19:12:12.621Z,0.1
2023-01-06T19:18:35.486Z,0.8
2023-01-06T19:24:55.553Z,0.8
2023-01-06T19:31:18.845Z,0.6
2023-01-06T19:37:38.822Z,0.6
2023-01-06T19:44:01.554Z,0.4
2023-01-06T19:50:21.630Z,0.4
2023-01-06T19:56:44.616Z,0.3
2023-01-06T20:03:04.679Z,0.3
2023-01-06T20:09:27.699Z,0.5
2023-01-06T20:15:47.663Z,0.5
2023-01-06T20:22:10.539Z,0.9
2023-01-06T20:28:30.626Z,0.9
2023-01-06T20:34:53.505Z,0.8
2023-01-06T20:41:13.559Z,0.8
2023-01-06T20:47:36.773Z,0.3
2023-01-06T21:04:02.356Z,0.2
2023-01-06T21:10:25.026Z,1.1
2023-01-06T21:16:44.560Z,1.1
2023-01-06T21:23:07.715Z,0.3
2023-01-06T21:29:27.512Z,0.3
2023-01-06T21:35:50.652Z,0.7
2023-01-06T21:42:10.654Z,0.7
2023-01-06T21:48:33.536Z,0.3
2023-01-06T21:54:53.570Z,0.3
2023-01-06T22:01:16.810Z,0.4
2023-01-06T22:07:36.737Z,0.4
2023-01-06T22:13:59.542Z,0.3
2023-01-06T22:20:19.664Z,0.3
2023-01-06T22:26:42.621Z,0.7
2023-01-06T22:33:02.559Z,0.7
2023-01-06T22:39:25.693Z,0.8
2023-01-06T22:45:45.522Z,0.8
2023-01-06T22:52:08.516Z,0.3
2023-01-06T22:58:28.668Z,0.3
2023-01-06T23:22:46.660Z,1
2023-01-06T23:29:06.507Z,1
2023-01-06T23:35:29.503Z,1
2023-01-06T23:41:49.538Z,1
2023-01-06T23:48:12.537Z,1
2023-01-06T23:54:32.595Z,1
